createdAt,value
2022-11-05T00:01:16.960Z,7.42
2022-11-05T00:06:36.729Z,7.42
2022-11-05T00:12:00.664Z,7.45
2022-11-05T00:17:01.644Z,7.48
2022-11-05T00:22:21.054Z,7.50
2022-11-05T00:27:22.090Z,7.52
2022-11-05T00:32:23.084Z,7.51
2022-11-05T00:37:27.445Z,7.49
2022-11-05T00:42:47.361Z,7.44
2022-11-05T00:48:07.061Z,7.38
2022-11-05T00:53:08.628Z,7.30
2022-11-05T00:58:15.833Z,7.23
2022-11-05T01:03:19.099Z,7.16
2022-11-05T01:08:22.359Z,7.13
2022-11-05T01:13:26.998Z,7.13
2022-11-05T01:18:28.254Z,7.13
2022-11-05T01:23:29.327Z,7.11
2022-11-05T01:28:30.489Z,7.09
2022-11-05T01:33:31.632Z,7.06
2022-11-05T01:38:32.657Z,7.01
2022-11-05T01:43:53.681Z,6.97
2022-11-05T01:49:03.191Z,6.96
2022-11-05T01:54:10.048Z,6.99
2022-11-05T01:59:17.674Z,7.03
2022-11-05T02:04:39.147Z,7.07
2022-11-05T02:10:03.774Z,7.09
2022-11-05T02:15:05.990Z,7.09
2022-11-05T02:20:28.964Z,7.07
2022-11-05T02:26:07.779Z,7.07
2022-11-05T02:31:20.691Z,7.09
2022-11-05T02:36:45.795Z,7.12
2022-11-05T02:42:05.832Z,7.11
2022-11-05T02:47:25.434Z,7.09
2022-11-05T02:52:42.356Z,7.07
2022-11-05T02:57:45.820Z,7.03
2022-11-05T03:02:46.980Z,7.00
2022-11-05T03:07:57.582Z,6.99
2022-11-05T03:13:44.488Z,6.99
2022-11-05T03:18:53.951Z,7.01
2022-11-05T03:24:08.265Z,7.03
2022-11-05T03:29:16.784Z,7.05
2022-11-05T03:34:21.723Z,7.06
2022-11-05T03:39:29.640Z,7.07
2022-11-05T03:44:35.372Z,7.08
2022-11-05T03:49:46.708Z,7.08
2022-11-05T03:54:47.866Z,7.07
2022-11-05T03:59:50.249Z,7.09
2022-11-05T04:04:51.974Z,7.11
2022-11-05T04:10:11.423Z,7.12
2022-11-05T04:15:13.733Z,7.13
2022-11-05T04:20:33.649Z,7.12
2022-11-05T04:25:34.755Z,7.10
2022-11-05T04:30:36.248Z,7.07
2022-11-05T04:35:45.789Z,7.04
2022-11-05T04:40:47.561Z,7.02
2022-11-05T04:45:48.589Z,6.98
2022-11-05T04:50:49.500Z,6.97
2022-11-05T04:55:50.602Z,7.00
2022-11-05T05:00:52.041Z,7.02
2022-11-05T05:05:54.028Z,7.04
2022-11-05T05:10:55.510Z,7.09
2022-11-05T05:15:56.828Z,7.13
2022-11-05T05:21:17.490Z,7.17
2022-11-05T05:26:18.510Z,7.22
2022-11-05T05:31:20.720Z,7.26
2022-11-05T05:36:22.703Z,7.29
2022-11-05T05:41:24.402Z,7.32
2022-11-05T05:46:25.446Z,7.34
2022-11-05T05:51:26.376Z,7.36
2022-11-05T05:56:27.417Z,7.38
2022-11-05T06:01:28.478Z,7.40
2022-11-05T06:06:29.867Z,7.43
2022-11-05T06:11:30.926Z,7.47
2022-11-05T06:16:35.191Z,7.49
2022-11-05T06:21:36.421Z,7.52
2022-11-05T06:26:42.041Z,7.55
2022-11-05T06:31:43.014Z,7.58
2022-11-05T06:36:44.067Z,7.62
2022-11-05T06:42:12.067Z,7.66
2022-11-05T06:47:06.268Z,7.69
2022-11-05T06:52:07.251Z,7.73
2022-11-05T06:57:12.070Z,7.78
2022-11-05T07:02:13.212Z,7.86
2022-11-05T07:07:14.692Z,7.89
2022-11-05T07:12:15.615Z,7.92
2022-11-05T07:17:17.868Z,7.92
2022-11-05T07:22:18.880Z,7.92
2022-11-05T07:27:19.975Z,7.92
2022-11-05T07:32:20.919Z,7.93
2022-11-05T07:37:21.979Z,7.94
2022-11-05T07:42:22.980Z,7.96
2022-11-05T07:47:24.017Z,7.99
2022-11-05T07:52:25.010Z,8.00
2022-11-05T07:57:26.066Z,8.01
2022-11-05T08:02:27.290Z,8.02
2022-11-05T08:07:28.518Z,8.03
2022-11-05T08:12:30.254Z,8.03
2022-11-05T08:17:31.656Z,8.07
2022-11-05T08:22:32.622Z,8.10
2022-11-05T08:27:33.650Z,8.15
2022-11-05T08:32:35.044Z,8.19
2022-11-05T08:37:36.282Z,8.21
2022-11-05T08:42:37.259Z,8.27
2022-11-05T08:47:38.318Z,8.37
2022-11-05T08:52:39.998Z,8.42
2022-11-05T08:57:41.026Z,8.44
2022-11-05T09:02:42.028Z,8.47
2022-11-05T09:07:43.201Z,8.52
2022-11-05T09:12:44.287Z,8.58
2022-11-05T09:17:45.250Z,8.64
2022-11-05T09:22:46.751Z,8.72
2022-11-05T09:27:47.768Z,8.82
2022-11-05T09:32:48.791Z,8.90
2022-11-05T09:37:49.854Z,8.93
2022-11-05T09:42:53.219Z,8.93
2022-11-05T09:48:03.265Z,8.96
2022-11-05T09:53:04.661Z,8.98
2022-11-05T09:58:18.359Z,9.01
2022-11-05T10:03:22.272Z,9.05
2022-11-05T10:08:31.844Z,9.07
2022-11-05T10:13:41.573Z,9.12
2022-11-05T10:18:47.592Z,9.18
2022-11-05T10:23:48.670Z,9.31
2022-11-05T10:28:51.976Z,9.42
2022-11-05T10:33:58.729Z,9.43
2022-11-05T10:39:08.792Z,9.46
2022-11-05T10:44:25.710Z,9.47
2022-11-05T10:49:44.562Z,9.47
2022-11-05T10:54:46.836Z,9.45
2022-11-05T10:59:48.080Z,9.49
2022-11-05T11:04:52.972Z,9.52
2022-11-05T11:09:54.474Z,9.56
2022-11-05T11:15:03.639Z,9.56
2022-11-05T11:20:20.244Z,9.60
2022-11-05T11:25:24.785Z,9.75
2022-11-05T11:30:26.687Z,10.04
2022-11-05T11:35:28.612Z,10.21
2022-11-05T11:40:33.662Z,10.26
2022-11-05T11:45:45.986Z,10.26
2022-11-05T11:50:48.261Z,10.22
2022-11-05T11:56:11.468Z,10.30
2022-11-05T12:01:54.576Z,10.49
2022-11-05T12:07:17.628Z,10.68
2022-11-05T12:12:28.037Z,10.75
2022-11-05T12:17:45.300Z,10.74
2022-11-05T12:23:08.811Z,10.78
2022-11-05T12:28:13.306Z,10.75
2022-11-05T12:33:41.655Z,10.71
2022-11-05T12:38:52.555Z,10.74
2022-11-05T12:44:27.098Z,10.71
2022-11-05T12:49:46.975Z,10.64
2022-11-05T12:55:01.209Z,10.52
2022-11-05T13:00:05.949Z,10.41
2022-11-05T13:05:18.906Z,10.29
2022-11-05T13:10:31.070Z,10.23
2022-11-05T13:15:38.295Z,10.23
2022-11-05T13:20:45.097Z,10.27
2022-11-05T13:25:52.498Z,10.25
2022-11-05T13:31:00.626Z,10.17
2022-11-05T13:36:34.031Z,10.12
2022-11-05T13:42:01.070Z,10.10
2022-11-05T13:47:40.187Z,10.04
2022-11-05T13:52:58.274Z,10.03
2022-11-05T13:58:37.231Z,9.98
2022-11-05T14:03:45.321Z,9.94
2022-11-05T14:08:46.430Z,9.92
2022-11-05T14:13:53.942Z,9.88
2022-11-05T14:19:17.782Z,9.84
2022-11-05T14:24:24.596Z,9.82
2022-11-05T14:29:44.018Z,9.82
2022-11-05T14:34:45.172Z,9.80
2022-11-05T14:39:47.107Z,9.78
2022-11-05T14:45:13.055Z,9.74
2022-11-05T14:50:38.189Z,9.69
2022-11-05T14:55:42.666Z,9.66
2022-11-05T15:00:46.033Z,9.64
2022-11-05T15:05:47.013Z,9.60
2022-11-05T15:10:48.414Z,9.58
2022-11-05T15:15:51.311Z,9.55
2022-11-05T15:20:56.841Z,9.53
2022-11-05T15:26:11.477Z,9.51
2022-11-05T15:31:12.433Z,9.50
2022-11-05T15:36:32.462Z,9.49
2022-11-05T15:41:33.863Z,9.47
2022-11-05T15:46:34.877Z,9.44
2022-11-05T15:51:36.352Z,9.40
2022-11-05T15:56:49.005Z,9.37
2022-11-05T16:02:00.392Z,9.33
2022-11-05T16:07:09.953Z,9.30
2022-11-05T16:12:18.066Z,9.29
2022-11-05T16:17:23.314Z,9.28
2022-11-05T16:22:25.062Z,9.27
2022-11-05T16:27:26.414Z,9.27
2022-11-05T16:32:31.095Z,9.26
2022-11-05T16:37:40.885Z,9.27
2022-11-05T16:42:42.586Z,9.29
2022-11-05T16:47:45.366Z,9.31
2022-11-05T16:52:46.960Z,9.32
2022-11-05T16:57:54.692Z,9.27
2022-11-05T17:02:56.110Z,9.20
2022-11-05T17:07:57.776Z,9.17
2022-11-05T17:12:58.870Z,9.14
2022-11-05T17:18:04.915Z,9.14
2022-11-05T17:23:07.339Z,9.11
2022-11-05T17:28:10.319Z,9.08
2022-11-05T17:33:12.078Z,9.08
2022-11-05T17:38:15.681Z,9.10
2022-11-05T17:43:17.632Z,9.10
2022-11-05T17:48:20.364Z,9.10
2022-11-05T17:53:21.600Z,9.09
2022-11-05T17:58:22.659Z,9.07
2022-11-05T18:03:24.023Z,9.06
2022-11-05T18:08:26.577Z,9.02
2022-11-05T18:13:27.530Z,9.02
2022-11-05T18:18:28.812Z,9.00
2022-11-05T18:23:29.843Z,8.95
2022-11-05T18:28:34.292Z,8.92
2022-11-05T18:33:35.293Z,8.89
2022-11-05T18:38:36.602Z,8.87
2022-11-05T18:43:37.623Z,8.86
2022-11-05T18:48:38.636Z,8.81
2022-11-05T18:53:39.920Z,8.78
2022-11-05T18:58:41.890Z,8.76
2022-11-05T19:03:43.159Z,8.74
2022-11-05T19:08:44.668Z,8.71
2022-11-05T19:13:46.576Z,8.69
2022-11-05T19:18:48.835Z,8.69
2022-11-05T19:23:51.204Z,8.68
2022-11-05T19:28:52.203Z,8.68
2022-11-05T19:33:53.811Z,8.67
2022-11-05T19:38:57.136Z,8.65
2022-11-05T19:44:00.974Z,8.61
2022-11-05T19:49:02.477Z,8.59
2022-11-05T19:54:04.873Z,8.57
2022-11-05T19:59:06.312Z,8.53
2022-11-05T20:04:11.064Z,8.49
2022-11-05T20:09:22.157Z,8.45
2022-11-05T20:14:25.300Z,8.42
2022-11-05T20:19:28.373Z,8.39
2022-11-05T20:24:29.534Z,8.35
2022-11-05T20:29:35.245Z,8.31
2022-11-05T20:34:37.905Z,8.27
2022-11-05T20:39:38.919Z,8.21
2022-11-05T20:44:40.209Z,8.20
2022-11-05T20:49:41.111Z,8.14
2022-11-05T20:54:42.453Z,8.07
2022-11-05T20:59:43.489Z,8.06
2022-11-05T21:04:45.101Z,8.07
2022-11-05T21:09:46.868Z,8.06
2022-11-05T21:14:48.913Z,8.02
2022-11-05T21:19:52.567Z,7.97
2022-11-05T21:24:53.663Z,7.93
2022-11-05T21:29:54.949Z,7.87
2022-11-05T21:34:55.914Z,7.82
2022-11-05T21:39:56.915Z,7.75
2022-11-05T21:45:00.606Z,7.67
2022-11-05T21:50:02.247Z,7.60
2022-11-05T21:55:22.385Z,7.52
2022-11-05T22:00:23.593Z,7.49
2022-11-05T22:05:26.290Z,7.43
2022-11-05T22:10:27.760Z,7.37
2022-11-05T22:15:28.810Z,7.29
2022-11-05T22:20:30.027Z,7.24
2022-11-05T22:25:30.995Z,7.19
2022-11-05T22:30:33.989Z,7.13
2022-11-05T22:35:38.589Z,7.08
2022-11-05T22:40:39.624Z,6.98
2022-11-05T22:45:40.649Z,6.86
2022-11-05T22:50:42.123Z,6.78
2022-11-05T22:55:43.131Z,6.74
2022-11-05T23:00:44.034Z,6.68
2022-11-05T23:05:45.151Z,6.60
2022-11-05T23:11:04.908Z,6.54
2022-11-05T23:16:26.912Z,6.46
2022-11-05T23:21:46.907Z,6.40
2022-11-05T23:26:50.747Z,6.35
2022-11-05T23:32:11.135Z,6.28
2022-11-05T23:37:30.681Z,6.22
2022-11-05T23:42:50.374Z,6.15
2022-11-05T23:48:10.827Z,6.10
2022-11-05T23:53:12.312Z,6.08
2022-11-05T23:58:14.580Z,6.03
